Time;durP1;ratioP1;P1;durP2;ratioP2;P2;SDS_P1;SDS_P2;PMS_P1;PMS_P2;Temp;Humidity;BMP_temperature;BMP_pressure;BME280_temperature;BME280_humidity;BME280_pressure;Samples;Min_cycle;Max_cycle;Signal;HPM_P1;HPM_P2
2022/09/18 00:01:15;;;;;;;19.37;11.03;;;;;;;8.39;100.00;98556.13;4190102;28;20229;-68
2022/09/18 00:03:41;;;;;;;20.57;10.63;;;;;;;8.38;100.00;98549.19;4187867;28;20438;-64
2022/09/18 00:06:13;;;;;;;18.80;9.63;;;;;;;8.41;100.00;98548.88;4181499;28;20243;-67
2022/09/18 00:08:42;;;;;;;17.17;10.03;;;;;;;8.50;100.00;98549.63;4205660;28;20244;-67
2022/09/18 00:11:10;;;;;;;21.77;9.97;;;;;;;8.58;100.00;98551.38;4177774;28;20245;-71
2022/09/18 00:13:38;;;;;;;16.00;9.40;;;;;;;8.43;100.00;98552.16;4199271;28;20395;-70
2022/09/18 00:16:06;;;;;;;15.73;9.50;;;;;;;8.49;100.00;98545.31;4188193;28;20245;-72
2022/09/18 00:18:33;;;;;;;18.50;9.57;;;;;;;8.47;100.00;98549.16;4186430;28;23609;-69
2022/09/18 00:21:12;;;;;;;15.33;8.67;;;;;;;8.59;100.00;98555.69;4194412;28;20245;-70
2022/09/18 00:23:39;;;;;;;14.97;8.40;;;;;;;8.54;100.00;98560.69;4188333;28;20293;-72
2022/09/18 00:26:07;;;;;;;15.63;8.53;;;;;;;8.52;100.00;98560.03;4178300;28;21997;-71
2022/09/18 00:28:34;;;;;;;16.80;8.83;;;;;;;8.52;100.00;98560.03;4185807;28;20230;-72
2022/09/18 00:31:14;;;;;;;13.00;8.20;;;;;;;8.56;100.00;98556.03;4184827;28;21659;-71
2022/09/18 00:33:41;;;;;;;14.40;9.00;;;;;;;8.54;100.00;98552.75;4185152;28;20251;-71
2022/09/18 00:36:13;;;;;;;16.10;9.53;;;;;;;8.59;100.00;98560.97;4186478;28;20461;-72
2022/09/18 00:38:40;;;;;;;14.60;7.93;;;;;;;8.60;100.00;98563.47;4185586;28;20503;-71
2022/09/18 00:41:12;;;;;;;15.17;8.27;;;;;;;8.60;100.00;98560.00;4198811;28;21342;-73
2022/09/18 00:43:38;;;;;;;18.93;7.67;;;;;;;8.64;100.00;98561.28;4211574;28;20238;-70
2022/09/18 00:46:22;;;;;;;12.07;7.33;;;;;;;8.70;100.00;98565.88;4203013;28;20279;-70
2022/09/18 00:49:13;;;;;;;13.97;7.43;;;;;;;8.74;100.00;98564.50;4202165;28;20249;-69
2022/09/18 00:51:40;;;;;;;13.80;8.17;;;;;;;8.70;100.00;98560.56;4196705;28;22036;-73
2022/09/18 00:54:17;;;;;;;15.60;7.90;;;;;;;8.66;100.00;98567.22;4198317;28;20524;-72
2022/09/18 00:56:44;;;;;;;14.03;8.50;;;;;;;8.70;100.00;98573.00;4200277;28;23023;-71
2022/09/18 00:59:13;;;;;;;18.20;8.90;;;;;;;8.73;100.00;98567.31;4200455;28;21331;-72
2022/09/18 01:01:39;;;;;;;14.47;7.90;;;;;;;8.77;100.00;98564.13;4201373;28;20340;-70
2022/09/18 01:04:10;;;;;;;16.00;7.90;;;;;;;8.88;100.00;98565.53;4209921;28;23514;-70
2022/09/18 01:07:14;;;;;;;17.13;7.73;;;;;;;8.93;100.00;98568.47;4203257;28;20240;-70
2022/09/18 01:10:12;;;;;;;12.50;7.67;;;;;;;8.87;100.00;98574.50;4201607;28;21021;-69
2022/09/18 01:12:48;;;;;;;13.63;8.10;;;;;;;8.88;100.00;98566.38;4195521;28;21112;-71
2022/09/18 01:15:47;;;;;;;16.63;8.17;;;;;;;8.88;100.00;98571.66;4191452;28;21469;-71
2022/09/18 01:18:31;;;;;;;14.07;8.20;;;;;;;8.86;100.00;98565.72;4195809;28;20242;-73
2022/09/18 01:21:08;;;;;;;14.47;8.23;;;;;;;8.81;100.00;98561.97;4202799;28;22913;-70
2022/09/18 01:23:38;;;;;;;14.77;7.67;;;;;;;8.81;100.00;98560.13;4209304;28;20233;-70
2022/09/18 01:26:35;;;;;;;13.27;8.40;;;;;;;8.72;100.00;98555.91;4200323;28;20688;-73
2022/09/18 01:29:30;;;;;;;17.63;9.30;;;;;;;8.65;100.00;98555.78;4208034;28;20241;-69
2022/09/18 01:32:20;;;;;;;18.30;9.23;;;;;;;8.73;100.00;98557.53;4197194;28;23155;-71
2022/09/18 01:34:55;;;;;;;14.53;8.97;;;;;;;8.82;100.00;98559.13;4192484;28;20309;-70
2022/09/18 01:37:31;;;;;;;17.00;8.40;;;;;;;8.83;100.00;98554.66;4201945;28;22754;-71
2022/09/18 01:40:09;;;;;;;17.13;9.17;;;;;;;8.83;100.00;98552.81;4188595;28;21985;-70
2022/09/18 01:42:37;;;;;;;20.80;10.10;;;;;;;8.80;100.00;98550.53;4201358;28;21532;-72
2022/09/18 01:45:07;;;;;;;18.47;8.80;;;;;;;8.94;100.00;98551.53;4198762;28;20531;-70
2022/09/18 01:47:38;;;;;;;16.97;8.70;;;;;;;8.84;100.00;98557.09;4187304;28;20416;-70
2022/09/18 01:50:06;;;;;;;15.83;8.47;;;;;;;8.82;100.00;98551.16;4188184;28;20891;-69
2022/09/18 01:52:37;;;;;;;21.67;9.33;;;;;;;8.79;100.00;98546.22;4194596;28;20261;-70
2022/09/18 01:55:07;;;;;;;19.20;8.93;;;;;;;8.75;100.00;98550.22;4199652;28;21173;-71
2022/09/18 01:57:43;;;;;;;19.57;9.87;;;;;;;8.76;100.00;98541.28;4191088;28;20237;-71
2022/09/18 02:00:11;;;;;;;21.23;9.40;;;;;;;8.80;100.00;98537.28;4188762;28;20303;-70
2022/09/18 02:02:44;;;;;;;21.17;8.73;;;;;;;8.85;100.00;98534.91;4185249;28;20245;-70
2022/09/18 02:05:17;;;;;;;15.43;8.73;;;;;;;8.79;100.00;98534.81;4197887;28;21267;-70
2022/09/18 02:07:53;;;;;;;17.10;8.47;;;;;;;8.82;100.00;98529.94;4187748;28;20306;-73
2022/09/18 02:10:21;;;;;;;21.40;8.73;;;;;;;8.71;100.00;98533.06;4191818;28;20593;-70
2022/09/18 02:12:50;;;;;;;25.43;9.80;;;;;;;8.81;100.00;98528.31;4189727;28;20234;-73
2022/09/18 02:15:16;;;;;;;17.00;9.53;;;;;;;8.81;100.00;98525.66;4192178;28;21407;-72
2022/09/18 02:17:50;;;;;;;20.63;9.10;;;;;;;8.76;100.00;98527.22;4216239;28;20244;-69
2022/09/18 02:20:27;;;;;;;21.33;9.13;;;;;;;8.75;100.00;98529.00;4198244;28;20244;-69
2022/09/18 02:22:56;;;;;;;17.97;8.97;;;;;;;8.72;100.00;98529.38;4194609;28;20236;-71
2022/09/18 02:25:28;;;;;;;25.60;10.87;;;;;;;8.77;100.00;98537.63;4202619;28;22226;-71
2022/09/18 02:27:55;;;;;;;23.17;11.60;;;;;;;8.74;100.00;98538.00;4191594;28;20411;-71
2022/09/18 02:30:22;;;;;;;21.53;11.60;;;;;;;8.81;100.00;98530.97;4177753;28;20231;-72
2022/09/18 02:32:54;;;;;;;22.20;11.80;;;;;;;8.80;100.00;98526.66;4192801;28;20293;-72
2022/09/18 02:35:22;;;;;;;22.73;11.33;;;;;;;8.86;100.00;98525.13;4198017;28;20241;-70
2022/09/18 02:37:51;;;;;;;24.10;10.97;;;;;;;8.86;100.00;98525.94;4192186;28;20327;-73
2022/09/18 02:40:21;;;;;;;23.10;10.37;;;;;;;8.75;100.00;98526.38;4195965;28;20320;-71
2022/09/18 02:43:30;;;;;;;20.77;10.47;;;;;;;8.79;100.00;98521.53;4199717;28;20254;-74
2022/09/18 02:46:12;;;;;;;24.17;9.90;;;;;;;8.87;100.00;98518.78;4211903;28;20246;-70
2022/09/18 02:49:00;;;;;;;20.40;10.47;;;;;;;8.88;100.00;98523.09;4201778;28;20659;-70
2022/09/18 02:51:54;;;;;;;26.17;9.97;;;;;;;8.86;100.00;98522.47;4198785;28;20305;-71
2022/09/18 02:54:28;;;;;;;26.07;10.50;;;;;;;8.82;100.00;98521.97;4197371;28;23388;-70
2022/09/18 02:56:58;;;;;;;24.00;10.40;;;;;;;8.93;100.00;98525.22;4215281;28;20239;-72
2022/09/18 02:59:31;;;;;;;22.93;10.23;;;;;;;8.91;100.00;98516.63;4203323;28;20416;-71
2022/09/18 03:01:58;;;;;;;26.77;10.87;;;;;;;8.83;100.00;98514.88;4186938;28;20242;-72
2022/09/18 03:04:26;;;;;;;30.03;11.00;;;;;;;8.92;100.00;98507.63;4186970;28;20236;-71
2022/09/18 03:06:53;;;;;;;28.67;10.87;;;;;;;8.92;100.00;98512.94;4215919;28;20330;-73
2022/09/18 03:09:19;;;;;;;18.57;10.40;;;;;;;9.00;100.00;98504.91;4190087;28;20233;-71
2022/09/18 03:11:46;;;;;;;23.43;11.23;;;;;;;8.90;100.00;98505.19;4195674;28;20238;-71
2022/09/18 03:14:12;;;;;;;24.67;10.63;;;;;;;8.90;100.00;98507.00;4202205;28;20274;-70
2022/09/18 03:16:39;;;;;;;28.33;10.90;;;;;;;8.94;100.00;98508.28;4203465;28;20585;-71
2022/09/18 03:19:05;;;;;;;26.87;11.40;;;;;;;8.90;100.00;98496.38;4199241;28;23558;-71
2022/09/18 03:21:32;;;;;;;24.90;10.03;;;;;;;8.99;100.00;98497.94;4206476;28;20672;-70
2022/09/18 03:23:59;;;;;;;22.43;10.50;;;;;;;8.99;100.00;98497.94;4204039;28;20932;-72
2022/09/18 03:26:25;;;;;;;24.80;10.67;;;;;;;8.98;100.00;98496.31;4194740;28;21943;-71
2022/09/18 03:28:52;;;;;;;28.67;10.47;;;;;;;9.00;100.00;98495.13;4194124;28;20259;-73
2022/09/18 03:31:18;;;;;;;25.80;10.30;;;;;;;8.94;100.00;98500.31;4190884;28;21588;-71
2022/09/18 03:33:45;;;;;;;21.63;10.73;;;;;;;8.99;100.00;98504.09;4209082;28;20568;-71
2022/09/18 03:36:12;;;;;;;24.13;10.07;;;;;;;9.00;100.00;98504.91;4202152;28;21552;-72
2022/09/18 03:38:39;;;;;;;28.07;10.70;;;;;;;9.04;100.00;98500.91;4188802;28;20295;-73
2022/09/18 03:41:06;;;;;;;31.80;11.27;;;;;;;9.04;100.00;98507.03;4206685;28;20294;-74
2022/09/18 03:43:33;;;;;;;24.63;9.30;;;;;;;9.10;100.00;98510.75;4205429;28;21035;-72
2022/09/18 03:46:00;;;;;;;24.53;10.43;;;;;;;9.05;100.00;98518.44;4201298;28;20368;-72
2022/09/18 03:48:27;;;;;;;20.73;8.50;;;;;;;9.10;100.00;98526.69;4212676;28;20236;-71
2022/09/18 03:50:53;;;;;;;26.40;8.90;;;;;;;9.11;100.00;98528.34;4201891;28;20258;-70
2022/09/18 03:53:20;;;;;;;22.83;8.43;;;;;;;9.15;100.00;98529.59;4202363;28;20474;-72
2022/09/18 03:55:48;;;;;;;26.07;8.63;;;;;;;9.10;100.00;98529.34;4189939;28;20793;-73
2022/09/18 03:58:15;;;;;;;26.27;8.50;;;;;;;9.10;100.00;98542.59;4185734;28;25825;-71
2022/09/18 04:00:41;;;;;;;22.47;8.03;;;;;;;9.11;100.00;98533.66;4196619;28;20239;-72
2022/09/18 04:03:08;;;;;;;20.30;7.93;;;;;;;9.23;100.00;98536.66;4184683;28;26870;-71
2022/09/18 04:05:35;;;;;;;20.73;7.87;;;;;;;9.21;100.00;98541.34;4201888;28;20299;-70
2022/09/18 04:08:01;;;;;;;22.80;8.73;;;;;;;9.12;100.00;98539.78;4215236;28;20348;-70
2022/09/18 04:10:28;;;;;;;24.43;7.90;;;;;;;9.12;100.00;98537.94;4198343;28;20240;-72
2022/09/18 04:12:54;;;;;;;22.63;7.83;;;;;;;9.24;100.00;98544.44;4202730;28;20254;-71
2022/09/18 04:15:21;;;;;;;24.20;8.60;;;;;;;9.28;100.00;98539.59;4204518;28;21804;-72
2022/09/18 04:17:47;;;;;;;22.10;7.63;;;;;;;9.25;100.00;98539.97;4194502;28;20481;-70
2022/09/18 04:20:14;;;;;;;21.30;8.30;;;;;;;9.23;100.00;98542.78;4195599;28;20301;-73
2022/09/18 04:22:40;;;;;;;18.83;7.10;;;;;;;9.34;100.00;98548.63;4202928;28;20387;-71
2022/09/18 04:25:07;;;;;;;21.43;7.17;;;;;;;9.43;100.00;98540.41;4203185;28;20241;-73
2022/09/18 04:27:35;;;;;;;20.77;6.90;;;;;;;9.43;100.00;98532.44;4203605;28;20419;-71
2022/09/18 04:30:02;;;;;;;27.37;7.20;;;;;;;9.37;100.00;98543.00;4179512;28;21031;-70
2022/09/18 04:32:28;;;;;;;23.60;7.70;;;;;;;9.34;100.00;98546.84;4187005;28;20334;-70
2022/09/18 04:34:55;;;;;;;19.70;7.13;;;;;;;9.33;100.00;98541.69;4192987;28;21701;-76
2022/09/18 04:37:21;;;;;;;16.17;6.90;;;;;;;9.30;100.00;98542.91;4202671;28;21188;-69
2022/09/18 04:39:48;;;;;;;22.40;7.03;;;;;;;9.35;100.00;98548.47;4194669;28;21635;-70
2022/09/18 04:42:14;;;;;;;22.50;7.60;;;;;;;9.32;100.00;98543.53;4199595;28;20251;-72
2022/09/18 04:44:41;;;;;;;19.17;7.10;;;;;;;9.39;100.00;98544.44;4200822;28;23417;-72
2022/09/18 04:47:07;;;;;;;22.63;7.23;;;;;;;9.38;100.00;98544.63;4187917;28;21776;-70
2022/09/18 04:49:34;;;;;;;19.73;7.10;;;;;;;9.35;100.00;98550.31;4167213;28;21076;-70
2022/09/18 04:52:01;;;;;;;18.47;6.90;;;;;;;9.32;100.00;98537.38;4187686;28;20236;-70
2022/09/18 04:54:27;;;;;;;17.47;6.43;;;;;;;9.44;100.00;98547.38;4185939;28;20247;-72
2022/09/18 04:56:54;;;;;;;20.70;6.70;;;;;;;9.48;100.00;98540.69;4202315;28;20463;-71
2022/09/18 04:59:20;;;;;;;19.13;6.23;;;;;;;9.44;100.00;98538.59;4230196;28;21127;-70
2022/09/18 05:01:47;;;;;;;20.33;7.00;;;;;;;9.52;100.00;98531.31;4242777;28;20252;-71
2022/09/18 05:04:13;;;;;;;18.17;7.43;;;;;;;9.52;100.00;98538.47;4202222;28;20370;-70
2022/09/18 05:06:40;;;;;;;17.77;6.63;;;;;;;9.54;100.00;98533.81;4211660;28;20382;-70
2022/09/18 05:09:07;;;;;;;18.93;7.00;;;;;;;9.58;100.00;98532.44;4212331;28;21752;-74
2022/09/18 05:11:33;;;;;;;27.10;6.80;;;;;;;9.57;100.00;98537.91;4198982;28;20226;-72
2022/09/18 05:14:00;;;;;;;22.90;7.20;;;;;;;9.54;100.00;98541.78;4202918;28;20224;-69
2022/09/18 05:16:26;;;;;;;20.07;7.10;;;;;;;9.55;100.00;98532.78;4210103;28;20241;-71
2022/09/18 05:18:53;;;;;;;23.03;7.40;;;;;;;9.52;100.00;98533.16;4206238;28;20263;-72
2022/09/18 05:21:20;;;;;;;14.67;6.83;;;;;;;9.57;100.00;98537.91;4204684;28;23258;-69
2022/09/18 05:23:46;;;;;;;19.73;7.27;;;;;;;9.61;100.00;98533.88;4208968;28;22356;-70
2022/09/18 05:26:13;;;;;;;20.00;6.53;;;;;;;9.62;100.00;98530.22;4204150;28;21245;-71
2022/09/18 05:28:40;;;;;;;19.13;6.70;;;;;;;9.56;100.00;98539.75;4200043;28;20232;-70
2022/09/18 05:31:06;;;;;;;17.80;6.60;;;;;;;9.53;100.00;98537.47;4198469;28;21048;-73
2022/09/18 05:33:33;;;;;;;18.23;6.83;;;;;;;9.48;100.00;98553.97;4222080;28;23064;-72
2022/09/18 05:36:00;;;;;;;21.67;6.70;;;;;;;9.52;100.00;98546.44;4192116;28;20237;-70
2022/09/18 05:38:27;;;;;;;21.00;6.37;;;;;;;9.49;100.00;98552.13;4174949;28;23062;-71
2022/09/18 05:40:53;;;;;;;10.87;6.73;;;;;;;9.54;100.00;98543.59;4210370;28;20248;-73
2022/09/18 05:43:20;;;;;;;23.80;7.27;;;;;;;9.50;100.00;98544.00;4210202;28;21120;-69
2022/09/18 05:45:46;;;;;;;18.33;6.80;;;;;;;9.47;100.00;98554.13;4211604;28;20313;-69
2022/09/18 05:48:13;;;;;;;25.90;6.73;;;;;;;9.41;100.00;98552.22;4195569;28;25226;-71
2022/09/18 05:50:41;;;;;;;21.87;6.97;;;;;;;9.42;100.00;98545.91;4203458;28;22181;-70
2022/09/18 05:53:15;;;;;;;16.60;6.93;;;;;;;9.37;100.00;98549.13;4192005;28;20269;-72
2022/09/18 05:55:42;;;;;;;19.23;7.20;;;;;;;9.46;100.00;98547.19;4201745;28;20294;-71
2022/09/18 05:58:11;;;;;;;16.87;7.00;;;;;;;9.49;100.00;98552.13;4194013;28;20302;-69
2022/09/18 06:00:38;;;;;;;18.67;8.10;;;;;;;9.42;100.00;98548.56;4196246;28;20384;-70
2022/09/18 06:03:07;;;;;;;16.80;7.73;;;;;;;9.43;100.00;98552.84;4174534;28;20533;-72
2022/09/18 06:05:36;;;;;;;18.33;6.87;;;;;;;9.39;100.00;98554.22;4196369;28;20381;-71
2022/09/18 06:08:04;;;;;;;18.63;6.93;;;;;;;9.37;100.00;98558.91;4196162;28;20250;-72
2022/09/18 06:10:32;;;;;;;17.83;7.60;;;;;;;9.35;100.00;98552.97;4196004;28;20421;-74
2022/09/18 06:13:03;;;;;;;21.93;7.03;;;;;;;9.37;100.00;98559.72;4213262;28;20234;-69
2022/09/18 06:15:30;;;;;;;16.40;6.67;;;;;;;9.46;100.00;98560.47;4203093;28;20360;-71
2022/09/18 06:17:57;;;;;;;15.60;6.10;;;;;;;9.50;100.00;98561.72;4202358;28;20435;-74
2022/09/18 06:20:24;;;;;;;17.57;6.27;;;;;;;9.43;100.00;98558.97;4205504;28;20234;-72
2022/09/18 06:22:50;;;;;;;13.33;5.03;;;;;;;9.41;100.00;98563.69;4193869;28;20349;-73
2022/09/18 06:25:20;;;;;;;10.53;4.83;;;;;;;9.42;100.00;98564.50;4193774;28;20252;-70
2022/09/18 06:27:49;;;;;;;11.97;4.93;;;;;;;9.27;100.00;98554.69;4191504;28;20244;-73
2022/09/18 06:30:15;;;;;;;14.70;4.67;;;;;;;9.35;100.00;98561.75;4212468;28;21673;-72
2022/09/18 06:32:42;;;;;;;15.10;4.70;;;;;;;9.33;100.00;98562.94;4190972;28;20474;-70
2022/09/18 06:35:08;;;;;;;9.73;4.70;;;;;;;9.30;100.00;98556.97;4185558;28;20663;-71
2022/09/18 06:37:35;;;;;;;10.17;4.50;;;;;;;9.34;100.00;98565.41;4188338;28;22048;-76
2022/09/18 06:40:02;;;;;;;10.50;4.57;;;;;;;9.30;100.00;98562.28;4204487;28;20242;-70
2022/09/18 06:42:29;;;;;;;10.40;4.20;;;;;;;9.26;100.00;98563.66;4189972;28;20518;-75
2022/09/18 06:44:56;;;;;;;12.60;4.20;;;;;;;9.16;100.00;98568.41;4208942;28;20259;-72
2022/09/18 06:47:22;;;;;;;9.87;4.07;;;;;;;9.17;100.00;98564.75;4213610;28;20229;-69
2022/09/18 06:49:49;;;;;;;10.83;4.20;;;;;;;9.11;100.00;98560.19;4200981;28;20238;-71
2022/09/18 06:52:15;;;;;;;9.60;4.27;;;;;;;9.12;100.00;98563.66;4195099;28;23066;-69
2022/09/18 06:54:41;;;;;;;8.63;4.30;;;;;;;9.19;100.00;98562.75;4206696;28;20322;-74
2022/09/18 06:57:08;;;;;;;9.83;3.57;;;;;;;9.17;100.00;98570.06;4194698;28;21579;-74
2022/09/18 06:59:36;;;;;;;12.20;3.90;;;;;;;9.22;100.00;98577.47;4188023;28;20237;-68
2022/09/18 07:02:04;;;;;;;12.63;3.90;;;;;;;9.14;100.00;98574.91;4192131;28;20753;-71
2022/09/18 07:04:31;;;;;;;9.57;3.57;;;;;;;9.10;100.00;98582.41;4204107;28;20396;-72
2022/09/18 07:06:58;;;;;;;9.17;3.83;;;;;;;8.98;100.00;98578.53;4197463;28;20241;-73
2022/09/18 07:09:24;;;;;;;9.83;3.30;;;;;;;8.93;100.00;98575.63;4193373;28;22417;-74
2022/09/18 07:11:51;;;;;;;8.40;3.27;;;;;;;8.79;100.00;98583.34;4207356;28;20229;-69
2022/09/18 07:14:17;;;;;;;8.20;3.07;;;;;;;8.85;100.00;98577.34;4205028;28;20338;-75
2022/09/18 07:16:44;;;;;;;8.33;2.87;;;;;;;8.80;100.00;98578.88;4198077;28;21833;-72
2022/09/18 07:19:10;;;;;;;7.30;3.00;;;;;;;8.85;100.00;98580.00;4202974;28;20240;-74
2022/09/18 07:21:38;;;;;;;7.33;3.40;;;;;;;8.78;100.00;98576.41;4193202;28;20341;-75
2022/09/18 07:24:05;;;;;;;7.50;3.20;;;;;;;8.75;100.00;98579.41;4184582;28;20237;-73
2022/09/18 07:26:31;;;;;;;8.93;3.73;;;;;;;8.62;100.00;98582.66;4200901;28;20402;-71
2022/09/18 07:28:58;;;;;;;9.30;3.27;;;;;;;8.63;100.00;98583.50;4199230;28;20711;-70
2022/09/18 07:31:24;;;;;;;10.23;3.90;;;;;;;8.60;100.00;98586.50;4197272;28;20240;-71
2022/09/18 07:33:52;;;;;;;9.83;3.70;;;;;;;8.54;100.00;98589.84;4193027;28;21400;-74
2022/09/18 07:36:18;;;;;;;13.50;4.17;;;;;;;8.56;100.00;98585.22;4187473;28;20953;-70
2022/09/18 07:38:50;;;;;;;11.27;5.00;;;;;;;8.51;100.00;98584.91;4204441;28;20235;-72
2022/09/18 07:41:16;;;;;;;9.93;4.30;;;;;;;8.43;100.00;98585.81;4201434;28;20237;-71
2022/09/18 07:43:42;;;;;;;10.13;4.43;;;;;;;8.43;100.00;98583.97;4200127;28;20406;-74
2022/09/18 07:46:09;;;;;;;11.50;4.90;;;;;;;8.42;100.00;98584.97;4191424;28;20673;-73
2022/09/18 07:48:36;;;;;;;12.73;4.63;;;;;;;8.40;100.00;98586.97;4186915;28;21610;-71
2022/09/18 07:51:03;;;;;;;10.17;4.73;;;;;;;8.48;100.00;98590.59;4193738;28;20238;-73
2022/09/18 07:53:31;;;;;;;13.80;5.67;;;;;;;8.49;100.00;98593.03;4206490;28;20245;-73
2022/09/18 07:55:57;;;;;;;12.03;4.63;;;;;;;8.58;100.00;98591.16;4193436;28;20243;-72
2022/09/18 07:58:24;;;;;;;12.50;5.87;;;;;;;8.48;100.00;98596.69;4201780;28;21262;-74
2022/09/18 08:00:51;;;;;;;10.57;5.60;;;;;;;8.50;100.00;98594.72;4207430;28;20376;-71
2022/09/18 08:03:17;;;;;;;12.27;5.93;;;;;;;8.53;100.00;98593.53;4192852;28;20240;-71
2022/09/18 08:05:44;;;;;;;11.77;6.30;;;;;;;8.59;100.00;98603.41;4196436;28;21092;-73
2022/09/18 08:08:13;;;;;;;16.00;5.77;;;;;;;8.60;100.00;98605.06;4203424;28;20303;-74
2022/09/18 08:10:42;;;;;;;15.03;6.33;;;;;;;8.64;100.00;98595.75;4211853;28;20424;-72
2022/09/18 08:13:08;;;;;;;11.43;5.40;;;;;;;8.66;100.00;98604.34;4194899;28;20233;-72
2022/09/18 08:15:37;;;;;;;14.83;5.77;;;;;;;8.69;100.00;98606.66;4201090;28;22850;-70
2022/09/18 08:18:05;;;;;;;11.80;5.03;;;;;;;8.78;100.00;98605.59;4206716;28;20233;-73
2022/09/18 08:20:32;;;;;;;19.47;5.67;;;;;;;8.72;100.00;98595.69;4193952;28;21171;-73
2022/09/18 08:23:02;;;;;;;11.33;4.83;;;;;;;8.90;100.00;98600.69;4193794;28;20241;-74
2022/09/18 08:25:29;;;;;;;9.50;3.90;;;;;;;8.91;100.00;98599.66;4208006;28;20259;-74
2022/09/18 08:28:03;;;;;;;16.60;4.27;;;;;;;9.03;100.00;98608.81;4187774;28;20236;-73
2022/09/18 08:30:31;;;;;;;9.63;3.43;;;;;;;9.07;100.00;98602.16;4219625;28;20331;-73
2022/09/18 08:32:59;;;;;;;9.57;3.57;;;;;;;9.09;100.00;98605.47;4214338;28;20305;-74
2022/09/18 08:35:26;;;;;;;9.57;3.57;;;;;;;9.11;100.00;98601.78;4201768;28;21164;-73
2022/09/18 08:37:53;;;;;;;11.37;2.90;;;;;;;9.22;100.00;98594.22;4210588;28;20343;-70
2022/09/18 08:40:23;;;;;;;9.10;3.87;;;;;;;9.32;100.00;98606.41;4201457;28;20240;-72
2022/09/18 08:43:21;;;;;;;10.47;3.80;;;;;;;9.47;100.00;98597.44;4222980;28;20688;-76
2022/09/18 08:46:23;;;;;;;7.23;3.40;;;;;;;9.55;100.00;98604.47;4179228;28;20294;-73
2022/09/18 08:48:57;;;;;;;7.70;3.50;;;;;;;9.66;100.00;98605.84;4235885;28;21033;-71
2022/09/18 08:51:33;;;;;;;8.43;3.50;;;;;;;9.79;100.00;98605.22;4237852;28;21154;-72
2022/09/18 08:54:18;;;;;;;10.40;3.37;;;;;;;9.91;100.00;98593.91;4255524;28;20252;-72
2022/09/18 08:56:45;;;;;;;9.47;3.70;;;;;;;10.04;100.00;98595.91;4281493;28;20232;-69
2022/09/18 08:59:28;;;;;;;10.53;4.20;;;;;;;10.05;100.00;98600.22;4264011;28;20233;-70
2022/09/18 09:02:19;;;;;;;9.57;3.80;;;;;;;10.06;100.00;98593.06;4268291;28;21764;-71
2022/09/18 09:04:53;;;;;;;11.30;4.13;;;;;;;10.08;100.00;98588.38;4220328;28;21058;-70
2022/09/18 09:07:31;;;;;;;9.73;3.50;;;;;;;9.92;100.00;98590.25;4210999;28;21099;-68
2022/09/18 09:10:16;;;;;;;12.63;4.30;;;;;;;10.00;100.00;98589.34;4207928;28;20582;-69
2022/09/18 09:12:56;;;;;;;11.40;3.97;;;;;;;10.01;100.00;98598.13;4208120;28;22664;-65
2022/09/18 09:15:51;;;;;;;9.47;3.80;;;;;;;10.20;100.00;98589.53;4239969;28;21077;-70
2022/09/18 09:18:22;;;;;;;9.77;4.17;;;;;;;10.22;100.00;98594.69;4233250;28;20250;-70
2022/09/18 09:20:53;;;;;;;10.50;3.73;;;;;;;10.33;100.00;98596.88;4230406;28;20374;-71
2022/09/18 09:23:47;;;;;;;10.00;3.33;;;;;;;10.43;100.00;98592.06;4215551;28;20228;-72
2022/09/18 09:26:18;;;;;;;8.53;3.60;;;;;;;10.73;100.00;98594.59;4243920;28;22354;-69
2022/09/18 09:28:58;;;;;;;8.57;3.03;;;;;;;11.02;100.00;98592.78;4242550;28;20301;-71
2022/09/18 09:31:35;;;;;;;7.60;3.30;;;;;;;11.10;99.47;98595.31;4236553;28;20235;-72
2022/09/18 09:34:13;;;;;;;14.63;2.67;;;;;;;11.22;97.49;98596.41;4241007;28;21137;-71
2022/09/18 09:36:41;;;;;;;5.33;2.90;;;;;;;11.31;96.10;98592.59;4296236;28;20231;-68
2022/09/18 09:39:17;;;;;;;6.67;2.33;;;;;;;11.56;95.79;98603.56;4244540;28;20242;-70
2022/09/18 09:41:50;;;;;;;8.33;2.57;;;;;;;11.86;93.78;98605.16;4236917;28;20688;-70
2022/09/18 09:44:42;;;;;;;10.63;2.50;;;;;;;12.27;92.65;98604.31;4227311;28;20864;-69
2022/09/18 09:47:11;;;;;;;8.70;2.50;;;;;;;12.39;91.04;98608.06;4191893;28;20485;-68
2022/09/18 09:49:46;;;;;;;5.13;2.00;;;;;;;12.29;90.45;98610.25;4220585;28;20315;-68
2022/09/18 09:52:24;;;;;;;4.90;2.33;;;;;;;12.39;91.61;98608.06;4219093;28;20333;-70
2022/09/18 09:55:06;;;;;;;8.50;2.30;;;;;;;12.70;88.67;98618.16;4228837;28;20526;-72
2022/09/18 09:57:44;;;;;;;6.13;2.47;;;;;;;12.70;86.96;98620.00;4204391;28;21814;-72
2022/09/18 10:00:18;;;;;;;5.10;2.30;;;;;;;12.62;87.07;98619.19;4206414;28;20228;-72
2022/09/18 10:03:22;;;;;;;5.17;2.20;;;;;;;12.42;88.00;98621.78;4195101;28;21108;-72
2022/09/18 10:05:53;;;;;;;4.53;2.30;;;;;;;12.41;86.90;98620.16;4236941;28;21036;-71
2022/09/18 10:08:27;;;;;;;8.03;2.30;;;;;;;12.27;88.90;98620.31;4224026;28;20247;-68
2022/09/18 10:10:57;;;;;;;6.27;2.20;;;;;;;12.32;88.99;98628.56;4230478;28;21138;-71
2022/09/18 10:13:42;;;;;;;5.20;2.67;;;;;;;12.32;88.06;98624.03;4192825;28;21774;-71
2022/09/18 10:16:14;;;;;;;6.57;2.20;;;;;;;12.24;88.68;98627.72;4230334;28;20249;-70
2022/09/18 10:18:44;;;;;;;9.73;2.63;;;;;;;12.18;88.53;98633.84;4195683;28;20311;-69
2022/09/18 10:21:15;;;;;;;6.80;2.37;;;;;;;12.14;90.06;98635.25;4188192;28;20236;-70
2022/09/18 10:24:01;;;;;;;8.97;2.47;;;;;;;12.20;90.46;98637.13;4204234;28;20272;-79
2022/09/18 10:26:36;;;;;;;6.93;2.20;;;;;;;12.23;89.33;98642.06;4204243;28;22209;-72
2022/09/18 10:29:03;;;;;;;6.97;2.13;;;;;;;12.11;88.43;98640.19;4188914;28;22162;-69
2022/09/18 10:31:51;;;;;;;9.13;2.53;;;;;;;12.03;87.79;98642.00;4199986;28;21782;-70
2022/09/18 10:34:35;;;;;;;4.93;2.40;;;;;;;12.12;88.34;98637.28;4216833;28;25396;-69
2022/09/18 10:37:03;;;;;;;5.47;1.93;;;;;;;12.22;87.76;98640.41;4190216;28;21780;-72
2022/09/18 10:39:33;;;;;;;7.03;2.40;;;;;;;12.28;89.56;98644.13;4212458;28;20237;-70
2022/09/18 10:42:01;;;;;;;12.07;2.63;;;;;;;12.37;86.36;98647.44;4215777;28;20325;-69
2022/09/18 10:44:35;;;;;;;4.57;2.07;;;;;;;12.29;85.82;98644.94;4232557;28;20785;-70
2022/09/18 10:47:09;;;;;;;7.93;2.47;;;;;;;12.07;86.69;98647.72;4184759;28;20233;-69
2022/09/18 10:49:39;;;;;;;9.03;2.40;;;;;;;12.11;86.77;98649.00;4200563;28;23637;-70
2022/09/18 10:52:38;;;;;;;7.77;2.43;;;;;;;12.29;86.01;98650.28;4215495;28;20566;-70
2022/09/18 10:55:06;;;;;;;5.90;2.90;;;;;;;12.40;84.77;98655.03;4224042;28;20622;-65
2022/09/18 10:57:36;;;;;;;7.90;2.70;;;;;;;12.46;83.65;98656.91;4219715;28;20365;-70
2022/09/18 11:00:28;;;;;;;6.60;2.60;;;;;;;12.45;84.11;98663.25;4199175;28;20657;-68
2022/09/18 11:03:00;;;;;;;12.30;2.70;;;;;;;12.45;84.82;98655.25;4231976;28;21858;-68
2022/09/18 11:05:32;;;;;;;8.67;2.97;;;;;;;12.31;84.78;98649.03;4194518;28;20233;-69
2022/09/18 11:08:00;;;;;;;5.07;2.60;;;;;;;12.35;84.03;98654.81;4192154;28;21082;-67
2022/09/18 11:10:31;;;;;;;6.07;2.70;;;;;;;12.42;84.38;98653.00;4200062;28;20256;-68
2022/09/18 11:13:00;;;;;;;8.23;2.77;;;;;;;12.49;85.32;98663.69;4203665;28;20240;-69
2022/09/18 11:15:31;;;;;;;5.50;2.77;;;;;;;12.51;82.47;98662.47;4183253;28;20240;-66
2022/09/18 11:18:03;;;;;;;8.57;3.07;;;;;;;12.23;83.74;98657.25;4204449;28;20249;-67
2022/09/18 11:20:34;;;;;;;6.47;2.60;;;;;;;12.30;83.84;98662.59;4211935;28;23497;-67
2022/09/18 11:23:24;;;;;;;5.93;2.57;;;;;;;12.47;84.44;98663.88;4186466;28;20238;-67
2022/09/18 11:26:18;;;;;;;8.90;3.33;;;;;;;12.40;82.94;98657.69;4200995;28;20617;-68
2022/09/18 11:29:01;;;;;;;6.70;2.53;;;;;;;12.49;82.58;98661.84;4212879;28;25662;-66
2022/09/18 11:31:40;;;;;;;3.73;2.47;;;;;;;12.53;82.32;98670.28;4183470;28;20761;-65
2022/09/18 11:34:20;;;;;;;7.13;3.20;;;;;;;12.52;83.11;98664.09;4209478;28;20227;-69
2022/09/18 11:36:49;;;;;;;5.07;2.17;;;;;;;12.58;83.55;98665.97;4196628;28;20250;-67
2022/09/18 11:39:21;;;;;;;5.97;2.90;;;;;;;12.64;81.82;98659.84;4199903;28;21457;-68
2022/09/18 11:41:50;;;;;;;5.47;2.77;;;;;;;12.72;80.95;98660.66;4216837;28;22973;-69
2022/09/18 11:44:33;;;;;;;6.33;2.60;;;;;;;12.66;81.87;98657.75;4360641;28;20721;-69
2022/09/18 11:47:22;;;;;;;7.40;2.67;;;;;;;12.58;82.01;98655.28;4197620;28;20328;-66